Time;durP1;ratioP1;P1;durP2;ratioP2;P2;SDS_P1;SDS_P2;PMS_P1;PMS_P2;Temp;Humidity;BMP_temperature;BMP_pressure;BME280_temperature;BME280_humidity;BME280_pressure;Samples;Min_cycle;Max_cycle;Signal;HPM_P1;HPM_P2
2023/06/08 00:00:16;;;;;;;22.55;15.00;;;;;;;30.19;74.55;100828.09;5108128;27;69194;-44
2023/06/08 00:02:47;;;;;;;;;;;;;;;30.04;75.80;100822.97;5105932;27;66216;-41
2023/06/08 00:05:20;;;;;;;40.75;13.35;;;;;;;30.18;75.56;100815.63;5109966;27;69193;-41
2023/06/08 00:07:52;;;;;;;23.15;12.70;;;;;;;29.95;75.24;100774.75;5103437;27;66455;-43
2023/06/08 00:10:23;;;;;;;24.80;11.87;;;;;;;30.04;74.91;100784.28;5111629;27;70060;-42
2023/06/08 00:12:55;;;;;;;18.73;13.18;;;;;;;28.14;75.21;100470.44;5111267;27;65268;-42
2023/06/08 00:15:27;;;;;;;;;;;;;;;30.15;75.60;100818.75;5106362;27;70752;-43
2023/06/08 00:17:59;;;;;;;27.65;12.68;;;;;;;30.30;75.07;100825.78;5118367;27;65568;-44
2023/06/08 00:20:33;;;;;;;15.07;11.98;;;;;;;30.33;75.31;100828.06;5111381;27;70183;-42
2023/06/08 00:23:04;;;;;;;23.55;13.40;;;;;;;30.32;75.35;100823.69;5113834;27;66754;-43
2023/06/08 00:25:35;;;;;;;23.65;13.38;;;;;;;30.23;74.80;100815.84;5111018;27;69431;-43
2023/06/08 00:28:06;;;;;;;23.17;13.18;;;;;;;30.35;74.34;100831.38;5108140;27;66541;-45
2023/06/08 00:30:37;;;;;;;22.63;12.40;;;;;;;30.39;74.93;100840.69;5111331;27;69700;-42
2023/06/08 00:33:08;;;;;;;11.90;10.50;;;;;;;30.46;72.25;100842.31;5112114;27;65234;-43
2023/06/08 00:35:40;;;;;;;13.98;9.57;;;;;;;30.47;71.97;100848.56;5105943;27;70309;-43
2023/06/08 00:38:11;;;;;;;9.93;8.93;;;;;;;30.22;71.26;100802.50;5114467;27;66690;-43
2023/06/08 00:40:43;;;;;;;12.80;9.50;;;;;;;30.48;70.73;100844.81;5111866;27;69664;-43
2023/06/08 00:43:14;;;;;;;9.80;8.70;;;;;;;30.54;70.94;100852.06;5112987;27;65092;-44
2023/06/08 00:45:45;;;;;;;9.73;8.90;;;;;;;30.50;69.92;100858.94;5120847;27;69794;-43
2023/06/08 00:48:17;;;;;;;9.50;8.60;;;;;;;30.46;69.81;100846.91;5107086;27;66595;-43
2023/06/08 00:50:50;;;;;;;9.50;8.80;;;;;;;30.61;69.89;100871.78;5116237;27;70839;-44
2023/06/08 00:53:22;;;;;;;10.13;8.98;;;;;;;30.61;69.37;100860.94;5113789;27;65988;-43
2023/06/08 00:55:55;;;;;;;9.25;8.45;;;;;;;30.67;69.43;100875.50;5106841;27;70046;-43
2023/06/08 00:58:28;;;;;;;9.52;8.65;;;;;;;30.66;69.64;100868.44;5112215;27;66314;-42
2023/06/08 01:01:03;;;;;;;8.88;7.97;;;;;;;30.68;69.54;100883.41;5117093;27;69315;-43
2023/06/08 01:03:38;;;;;;;8.23;7.60;;;;;;;30.67;68.72;100873.63;5115946;27;65691;-43
2023/06/08 01:06:12;;;;;;;8.38;7.78;;;;;;;30.54;68.46;100860.19;5112287;27;70213;-44
2023/06/08 01:09:09;;;;;;;9.20;7.95;;;;;;;29.68;68.49;100715.44;5107514;27;66472;-42
2023/06/08 01:12:07;;;;;;;7.88;7.38;;;;;;;30.69;68.74;100890.47;5121015;27;70165;-42
2023/06/08 01:15:16;;;;;;;10.32;8.13;;;;;;;30.64;68.80;100895.72;5100010;27;66039;-42
2023/06/08 01:17:57;;;;;;;8.68;7.97;;;;;;;30.67;68.54;100864.66;5103551;27;69543;-43
2023/06/08 01:20:48;;;;;;;8.82;7.78;;;;;;;30.74;68.48;100876.28;5102740;27;66717;-43
2023/06/08 01:23:34;;;;;;;8.27;7.60;;;;;;;30.73;68.55;100882.75;5119647;27;70412;-42
2023/06/08 01:26:10;;;;;;;8.45;7.82;;;;;;;30.58;68.36;100845.16;5121002;27;65799;-43
2023/06/08 01:28:41;;;;;;;9.00;8.15;;;;;;;30.75;68.42;100860.88;5111021;27;69297;-42
2023/06/08 01:31:12;;;;;;;13.57;8.18;;;;;;;30.84;67.71;100886.66;5115540;27;66261;-43
2023/06/08 01:33:44;;;;;;;9.40;7.37;;;;;;;30.87;68.05;100886.22;5112579;27;69377;-43
2023/06/08 01:36:38;;;;;;;;;;;;;;;30.59;69.20;100895.56;5111662;27;63769;-42
2023/06/08 01:39:27;;;;;;;7.75;7.25;;;;;;;30.86;67.97;100892.69;5097146;27;70145;-43
2023/06/08 01:42:04;;;;;;;8.05;7.28;;;;;;;30.26;67.94;100793.75;5111028;27;66535;-43
2023/06/08 01:44:41;;;;;;;7.47;6.68;;;;;;;29.44;67.40;100648.56;5105005;27;70478;-43
2023/06/08 01:47:15;;;;;;;7.13;6.65;;;;;;;30.06;67.64;100750.56;5111156;27;66929;-43
2023/06/08 01:49:48;;;;;;;6.93;6.43;;;;;;;30.93;67.29;100885.34;5105163;27;70528;-44
2023/06/08 01:52:20;;;;;;;6.90;6.43;;;;;;;31.02;67.09;100902.97;5105466;27;66469;-42
2023/06/08 01:54:51;;;;;;;7.90;7.05;;;;;;;30.91;67.24;100887.44;5105654;27;70205;-44
2023/06/08 01:57:23;;;;;;;6.68;6.20;;;;;;;31.05;67.04;100894.41;5103552;27;65806;-44
2023/06/08 01:59:54;;;;;;;7.78;6.95;;;;;;;31.07;67.21;100894.19;5107068;27;70066;-43
2023/06/08 02:02:25;;;;;;;7.47;6.75;;;;;;;31.11;66.95;100896.22;5103537;27;66886;-44
2023/06/08 02:04:57;;;;;;;6.57;6.00;;;;;;;30.89;67.21;100863.28;5089142;27;68937;-44
2023/06/08 02:07:29;;;;;;;7.07;6.57;;;;;;;31.16;66.96;100901.00;5104801;27;65665;-44
2023/06/08 02:10:00;;;;;;;7.63;6.28;;;;;;;31.19;66.54;100897.00;5107679;27;69969;-43
2023/06/08 02:12:33;;;;;;;6.38;5.97;;;;;;;31.21;66.67;100892.19;5107400;27;66658;-43
2023/06/08 02:15:06;;;;;;;6.22;5.72;;;;;;;31.21;66.57;100892.19;5097784;27;70052;-43
2023/06/08 02:17:37;;;;;;;5.75;5.35;;;;;;;31.24;66.66;100892.56;5105602;27;66270;-43
2023/06/08 02:20:09;;;;;;;8.32;5.78;;;;;;;31.22;66.64;100877.59;5106829;27;69295;-46
2023/06/08 02:22:42;;;;;;;5.63;5.22;;;;;;;31.29;66.05;100883.78;5106581;27;66395;-45
2023/06/08 02:25:13;;;;;;;5.82;5.43;;;;;;;31.21;66.35;100875.94;5104557;27;69302;-44
2023/06/08 02:27:45;;;;;;;5.97;5.45;;;;;;;31.31;66.03;100893.31;5117971;27;64363;-44
2023/06/08 02:30:16;;;;;;;5.90;5.50;;;;;;;31.33;66.21;100880.38;5106312;27;70453;-43
2023/06/08 02:32:53;;;;;;;5.38;5.00;;;;;;;31.37;65.92;100878.94;5116987;27;66549;-43
2023/06/08 02:35:24;;;;;;;5.97;5.57;;;;;;;31.14;65.96;100838.06;5110629;27;70586;-43
2023/06/08 02:37:56;;;;;;;5.93;5.53;;;;;;;31.22;65.61;100851.31;5113099;27;65664;-44
2023/06/08 02:40:27;;;;;;;6.82;5.70;;;;;;;31.39;65.84;100881.41;5112107;27;69522;-42
2023/06/08 02:42:59;;;;;;;7.80;5.57;;;;;;;31.44;65.69;100881.56;5103951;27;65690;-49
2023/06/08 02:45:31;;;;;;;6.15;5.68;;;;;;;31.36;65.52;100863.72;5101855;27;69271;-53
2023/06/08 02:48:06;;;;;;;4.97;4.65;;;;;;;31.49;65.39;100868.19;5102488;27;66431;-43
2023/06/08 02:50:37;;;;;;;4.88;4.50;;;;;;;31.37;65.51;100848.28;5118126;27;69691;-48
2023/06/08 02:53:09;;;;;;;5.47;5.07;;;;;;;31.33;65.22;100841.63;5120381;27;64629;-43
2023/06/08 02:55:41;;;;;;;5.15;4.75;;;;;;;31.54;65.36;100870.22;5112067;27;70391;-50
2023/06/08 02:58:20;;;;;;;5.18;4.78;;;;;;;31.02;64.90;100778.38;5102854;27;66647;-43
2023/06/08 03:00:55;;;;;;;4.97;4.47;;;;;;;31.55;64.67;100851.00;5104343;27;69383;-43
2023/06/08 03:03:56;;;;;;;4.65;4.28;;;;;;;31.43;64.61;100833.84;5103553;27;65578;-43
2023/06/08 03:06:36;;;;;;;5.25;4.75;;;;;;;31.64;64.55;100859.66;5079086;27;70224;-43
2023/06/08 03:09:12;;;;;;;4.60;4.25;;;;;;;31.67;64.86;100855.66;5093937;27;66299;-43
2023/06/08 03:11:50;;;;;;;5.38;4.97;;;;;;;31.69;64.46;100850.84;5105270;27;70210;-43
2023/06/08 03:14:28;;;;;;;4.88;4.57;;;;;;;31.69;64.21;100832.69;5102313;27;66274;-42
2023/06/08 03:17:03;;;;;;;5.10;4.70;;;;;;;31.73;64.62;100841.19;5113288;27;70118;-44
2023/06/08 03:19:38;;;;;;;4.57;4.18;;;;;;;31.66;64.03;100818.78;5088175;27;66176;-43
2023/06/08 03:22:11;;;;;;;4.93;4.53;;;;;;;31.76;64.19;100835.31;5113693;27;69703;-44
2023/06/08 03:24:54;;;;;;;4.53;4.07;;;;;;;31.78;64.04;100833.22;5106711;27;65802;-43
2023/06/08 03:27:25;;;;;;;5.30;4.82;;;;;;;31.73;63.88;100819.50;5107608;27;69083;-44
2023/06/08 03:29:59;;;;;;;7.22;4.60;;;;;;;31.80;63.84;100828.41;5101658;27;65713;-44
2023/06/08 03:32:38;;;;;;;4.15;3.85;;;;;;;31.70;63.80;100811.81;5122087;27;70119;-43
2023/06/08 03:35:11;;;;;;;4.82;4.45;;;;;;;31.58;63.86;100784.66;5112455;27;66555;-43
2023/06/08 03:37:42;;;;;;;4.75;4.35;;;;;;;31.81;63.83;100809.16;5104643;27;69043;-43
2023/06/08 03:40:14;;;;;;;;;;;;;;;31.54;64.38;100822.25;5105156;27;67543;-43
2023/06/08 03:42:45;;;;;;;6.95;4.50;;;;;;;31.81;63.80;100816.47;5104287;27;69951;-42
2023/06/08 03:45:17;;;;;;;4.70;4.22;;;;;;;31.36;63.60;100746.34;5120133;27;65412;-44
2023/06/08 03:47:52;;;;;;;4.68;4.32;;;;;;;31.80;63.58;100804.00;5101647;27;69178;-43
2023/06/08 03:50:26;;;;;;;4.47;3.90;;;;;;;31.82;63.58;100801.88;5104116;27;66869;-43
2023/06/08 03:52:57;;;;;;;;;;;;;;;31.59;63.61;100813.41;5114767;27;69359;-43
2023/06/08 03:55:28;;;;;;;5.03;4.03;;;;;;;31.79;63.42;100797.75;5106092;27;65555;-43
2023/06/08 03:58:00;;;;;;;5.30;4.47;;;;;;;31.90;63.66;100808.84;5103493;27;71180;-44
2023/06/08 04:00:32;;;;;;;7.75;4.18;;;;;;;31.92;63.36;100807.59;5102239;27;66510;-43
2023/06/08 04:03:04;;;;;;;5.43;3.67;;;;;;;31.88;63.36;100794.72;5109746;27;70075;-43
2023/06/08 04:05:36;;;;;;;4.45;4.15;;;;;;;31.89;63.38;100799.91;5104169;27;66146;-45
2023/06/08 04:08:08;;;;;;;4.13;3.78;;;;;;;31.84;63.13;100786.19;5099501;27;70518;-43
2023/06/08 04:10:40;;;;;;;5.15;3.88;;;;;;;31.91;63.29;100795.09;5110213;27;66432;-43
2023/06/08 04:13:11;;;;;;;3.92;3.63;;;;;;;31.96;63.35;100806.09;5104803;27;70313;-43
2023/06/08 04:15:44;;;;;;;4.22;3.83;;;;;;;31.75;63.04;100757.72;5100801;27;65667;-45
2023/06/08 04:18:18;;;;;;;3.85;3.55;;;;;;;32.02;63.27;100794.31;5100154;27;70497;-43
2023/06/08 04:20:50;;;;;;;4.40;4.00;;;;;;;32.02;63.45;100791.59;5113025;27;66589;-45
2023/06/08 04:23:21;;;;;;;3.72;3.42;;;;;;;31.70;63.05;100730.47;5083006;27;69371;-43
2023/06/08 04:25:54;;;;;;;3.67;3.17;;;;;;;32.06;62.98;100781.13;5103932;27;65518;-44
2023/06/08 04:28:27;;;;;;;5.40;3.60;;;;;;;32.07;63.13;100773.78;5107582;27;69290;-44
2023/06/08 04:31:02;;;;;;;5.55;3.60;;;;;;;32.08;62.93;100778.19;5099876;27;66745;-43
2023/06/08 04:33:35;;;;;;;4.43;4.03;;;;;;;32.09;62.87;100779.81;5106700;27;70012;-44
2023/06/08 04:36:08;;;;;;;3.90;3.50;;;;;;;32.08;63.02;100768.16;5109237;27;66678;-42
2023/06/08 04:38:42;;;;;;;5.15;4.03;;;;;;;32.10;63.05;100770.66;5100461;27;70163;-45
2023/06/08 04:41:18;;;;;;;3.97;3.58;;;;;;;32.13;62.81;100775.63;5117424;27;65931;-43
2023/06/08 04:43:50;;;;;;;6.47;3.38;;;;;;;32.05;62.95;100757.75;5106273;27;69792;-43
2023/06/08 04:46:25;;;;;;;3.58;3.28;;;;;;;32.15;63.04;100771.59;5116192;27;66245;-43
2023/06/08 04:49:00;;;;;;;3.55;3.25;;;;;;;32.02;62.70;100748.19;5113220;27;70321;-43
2023/06/08 04:51:32;;;;;;;3.65;3.28;;;;;;;32.05;62.72;100752.34;5108221;27;66348;-43
2023/06/08 04:54:03;;;;;;;3.97;3.63;;;;;;;32.06;62.87;100748.56;5115511;27;70067;-43
2023/06/08 04:56:38;;;;;;;4.30;3.70;;;;;;;32.08;62.73;100737.47;5109552;27;66308;-43
2023/06/08 04:59:10;;;;;;;3.90;3.60;;;;;;;32.15;62.88;100736.31;5114283;27;70031;-44
2023/06/08 05:01:41;;;;;;;4.82;3.20;;;;;;;32.23;62.95;100748.72;5116273;27;65697;-45
2023/06/08 05:04:12;;;;;;;3.67;3.37;;;;;;;32.23;62.78;100740.56;5092694;27;70395;-43
2023/06/08 05:06:44;;;;;;;5.88;3.80;;;;;;;32.21;62.87;100731.84;5111879;27;66415;-44
2023/06/08 05:09:15;;;;;;;3.67;3.38;;;;;;;32.25;63.01;100722.16;5108000;27;70173;-63
2023/06/08 05:11:47;;;;;;;3.42;3.13;;;;;;;32.27;62.85;100728.19;5111712;27;65511;-48
2023/06/08 05:14:19;;;;;;;3.85;3.38;;;;;;;32.29;62.56;100734.22;5127695;27;69928;-46
2023/06/08 05:16:52;;;;;;;4.93;3.85;;;;;;;32.30;62.90;100726.91;5094742;27;66062;-46
2023/06/08 05:19:23;;;;;;;;;;;;;;;32.02;63.27;100726.50;5104507;27;69625;-45
2023/06/08 05:21:54;;;;;;;3.67;3.38;;;;;;;32.23;62.76;100705.28;5112292;27;66670;-44
2023/06/08 05:24:26;;;;;;;6.05;3.40;;;;;;;32.32;62.90;100708.47;5114397;27;69445;-43
2023/06/08 05:26:57;;;;;;;4.65;3.97;;;;;;;32.32;62.94;100698.47;5104755;27;66242;-44
2023/06/08 05:29:29;;;;;;;3.83;3.50;;;;;;;32.30;62.88;100692.44;5113712;27;70188;-44
2023/06/08 05:32:00;;;;;;;5.93;3.55;;;;;;;32.27;62.39;100676.63;5103130;27;66501;-43
2023/06/08 05:34:32;;;;;;;3.35;3.15;;;;;;;32.19;63.08;100660.69;5114844;27;70040;-46
2023/06/08 05:37:03;;;;;;;3.55;3.35;;;;;;;32.37;62.88;100685.00;5106990;27;66218;-44
2023/06/08 05:39:34;;;;;;;3.88;3.55;;;;;;;32.39;62.88;100685.59;5113564;27;69738;-44
2023/06/08 05:42:06;;;;;;;4.28;3.60;;;;;;;31.85;62.72;100584.44;5105981;27;66307;-44
2023/06/08 05:44:38;;;;;;;3.58;3.38;;;;;;;32.41;62.54;100674.53;5104444;27;70464;-43
2023/06/08 05:47:09;;;;;;;4.15;3.85;;;;;;;32.41;62.72;100680.78;5105731;27;66111;-43
2023/06/08 05:49:41;;;;;;;3.40;3.10;;;;;;;32.42;62.64;100666.13;5104651;27;69744;-45
2023/06/08 05:52:12;;;;;;;3.13;2.92;;;;;;;32.45;62.72;100668.34;5107580;27;66827;-44
2023/06/08 05:54:44;;;;;;;5.18;3.22;;;;;;;32.47;62.54;100658.13;5112708;27;70058;-44
2023/06/08 05:57:15;;;;;;;4.00;3.70;;;;;;;32.51;62.62;100668.50;5112051;27;66264;-45
2023/06/08 05:59:46;;;;;;;4.27;3.60;;;;;;;32.41;62.44;100650.91;5113720;27;70059;-44
2023/06/08 06:02:18;;;;;;;3.58;3.28;;;;;;;32.45;62.88;100652.06;5106579;27;65985;-44
2023/06/08 06:04:50;;;;;;;3.88;3.58;;;;;;;32.54;62.66;100668.03;5119429;27;69154;-43
2023/06/08 06:07:22;;;;;;;4.53;3.90;;;;;;;32.55;62.59;100664.28;5113022;27;66685;-43
2023/06/08 06:09:53;;;;;;;3.17;2.97;;;;;;;32.53;62.73;100661.78;5106956;27;69067;-43
2023/06/08 06:12:25;;;;;;;3.75;3.30;;;;;;;32.56;62.30;100665.91;5106398;27;66106;-43
2023/06/08 06:14:56;;;;;;;3.55;3.25;;;;;;;32.58;62.63;100658.38;5109605;27;70317;-42
2023/06/08 06:17:28;;;;;;;3.83;3.40;;;;;;;31.98;62.47;100557.13;5111564;27;66052;-42
2023/06/08 06:20:00;;;;;;;3.80;3.38;;;;;;;32.60;62.52;100650.81;5113457;27;70214;-43
2023/06/08 06:22:32;;;;;;;3.97;3.67;;;;;;;32.59;62.59;100654.59;5103492;27;66262;-43
2023/06/08 06:25:04;;;;;;;3.53;3.22;;;;;;;32.61;62.52;100649.75;5105065;27;70003;-42
2023/06/08 06:27:36;;;;;;;3.70;3.50;;;;;;;32.55;62.29;100634.41;5104128;27;66195;-43
2023/06/08 06:30:17;;;;;;;3.50;3.20;;;;;;;32.57;62.43;100637.69;5104095;27;70195;-43
2023/06/08 06:32:48;;;;;;;3.20;3.00;;;;;;;32.63;62.38;100644.91;5104209;27;66899;-43
2023/06/08 06:35:20;;;;;;;3.75;3.45;;;;;;;32.64;62.66;100641.13;5112444;27;69324;-43
2023/06/08 06:37:53;;;;;;;3.80;3.50;;;;;;;32.64;62.41;100651.97;5105069;27;65935;-43
2023/06/08 06:40:24;;;;;;;3.85;3.55;;;;;;;32.66;62.40;100630.84;5096330;27;70031;-43
2023/06/08 06:42:55;;;;;;;3.65;3.35;;;;;;;32.66;62.34;100633.56;5106023;27;65115;-43
2023/06/08 06:45:33;;;;;;;3.67;3.47;;;;;;;32.68;62.24;100642.28;5108301;27;70653;-43
2023/06/08 06:48:05;;;;;;;4.10;3.80;;;;;;;32.68;62.22;100634.13;5104628;27;65971;-43
2023/06/08 06:50:37;;;;;;;4.03;3.22;;;;;;;32.58;62.27;100604.06;5107849;27;69966;-44
2023/06/08 06:53:08;;;;;;;4.40;4.10;;;;;;;32.65;62.04;100623.75;5103743;27;65545;-42
2023/06/08 06:55:40;;;;;;;3.88;3.58;;;;;;;32.70;62.16;100630.13;5101369;27;70031;-44
2023/06/08 06:58:13;;;;;;;3.40;3.20;;;;;;;32.69;61.91;100608.66;5105113;27;66238;-44
2023/06/08 07:00:45;;;;;;;2.90;2.70;;;;;;;32.70;61.83;100613.00;5106727;27;71769;-43
2023/06/08 07:03:16;;;;;;;3.20;2.95;;;;;;;32.72;61.97;100605.44;5105651;27;66298;-43
2023/06/08 07:05:49;;;;;;;3.53;3.22;;;;;;;32.77;61.78;100610.16;5108050;27;69247;-45
2023/06/08 07:08:21;;;;;;;3.33;3.05;;;;;;;32.61;61.71;100565.56;5103623;27;65550;-44
2023/06/08 07:10:52;;;;;;;3.55;3.25;;;;;;;32.78;61.55;100599.06;5103526;27;69384;-43
2023/06/08 07:13:24;;;;;;;3.05;2.85;;;;;;;32.80;61.60;100599.66;5109444;27;65820;-43
2023/06/08 07:15:57;;;;;;;3.97;3.13;;;;;;;32.78;61.62;100581.94;5104056;27;69902;-43
2023/06/08 07:18:29;;;;;;;3.47;3.15;;;;;;;32.82;61.27;100586.66;5116078;27;66129;-44
2023/06/08 07:21:01;;;;;;;5.95;2.78;;;;;;;32.85;61.12;100598.94;5113593;27;69424;-45
2023/06/08 07:23:33;;;;;;;3.35;3.05;;;;;;;32.86;61.22;100589.72;5107477;27;65237;-44
2023/06/08 07:26:26;;;;;;;3.78;3.50;;;;;;;32.83;61.45;100588.28;5108876;27;70022;-43
2023/06/08 07:29:02;;;;;;;3.20;3.00;;;;;;;32.86;61.37;100589.72;5107861;27;65321;-43
2023/06/08 07:31:36;;;;;;;3.13;2.83;;;;;;;32.88;61.07;100585.69;5114518;27;69609;-44
2023/06/08 07:34:08;;;;;;;3.55;3.25;;;;;;;32.87;61.02;100581.31;5125354;27;65776;-43
2023/06/08 07:36:40;;;;;;;3.65;3.30;;;;;;;32.85;61.26;100572.59;5102600;27;68990;-48
2023/06/08 07:39:11;;;;;;;3.22;2.92;;;;;;;32.87;61.25;100581.31;5104741;27;65962;-42
2023/06/08 07:41:42;;;;;;;3.23;3.03;;;;;;;32.62;61.19;100548.19;5103706;27;69613;-43
2023/06/08 07:44:13;;;;;;;3.15;2.95;;;;;;;32.78;60.89;100569.16;5111831;27;65784;-44
2023/06/08 07:46:45;;;;;;;3.08;2.83;;;;;;;32.88;61.16;100588.41;5106237;27;70169;-43
2023/06/08 07:49:16;;;;;;;;;;;;;;;32.61;61.60;100581.84;5102065;27;66319;-43
2023/06/08 07:51:47;;;;;;;4.50;2.80;;;;;;;32.89;61.19;100578.34;5107751;27;69783;-44
2023/06/08 07:54:19;;;;;;;3.47;3.28;;;;;;;32.89;61.15;100590.03;5102766;27;66964;-43
2023/06/08 07:56:50;;;;;;;3.42;3.13;;;;;;;32.89;61.06;100581.88;5108079;27;69600;-44
2023/06/08 07:59:22;;;;;;;3.00;2.72;;;;;;;32.90;60.89;100586.28;5111609;27;66648;-43
2023/06/08 08:01:53;;;;;;;4.13;2.70;;;;;;;32.90;60.91;100580.84;5112736;27;70141;-43
2023/06/08 08:04:24;;;;;;;5.75;2.65;;;;;;;32.88;61.14;100571.28;5106845;27;65754;-42
2023/06/08 08:06:56;;;;;;;3.13;2.92;;;;;;;32.88;60.98;100572.09;5109269;27;70224;-45
2023/06/08 08:09:27;;;;;;;3.65;3.35;;;;;;;32.88;60.96;100576.72;5113285;27;65352;-43
2023/06/08 08:11:59;;;;;;;2.53;2.33;;;;;;;32.84;61.07;100570.09;5113594;27;70189;-43
2023/06/08 08:14:30;;;;;;;2.90;2.70;;;;;;;32.83;61.20;100572.00;5114962;27;66126;-45
2023/06/08 08:17:01;;;;;;;2.70;2.50;;;;;;;32.89;60.60;100581.88;5116067;27;68976;-44
2023/06/08 08:19:33;;;;;;;4.18;2.72;;;;;;;32.85;60.94;100572.59;5112424;27;66363;-42
2023/06/08 08:22:05;;;;;;;4.57;2.83;;;;;;;32.91;60.78;100571.63;5110986;27;69288;-43
2023/06/08 08:24:37;;;;;;;3.00;2.80;;;;;;;32.90;60.83;100558.25;5107305;27;66284;-45
2023/06/08 08:27:10;;;;;;;7.68;2.75;;;;;;;32.90;60.91;100567.25;5110392;27;69113;-45
2023/06/08 08:29:42;;;;;;;3.00;2.80;;;;;;;32.91;60.82;100560.75;5118270;27;66160;-43
2023/06/08 08:32:13;;;;;;;5.18;2.65;;;;;;;32.90;60.74;100555.53;5108837;27;69182;-43
2023/06/08 08:34:45;;;;;;;3.20;2.72;;;;;;;32.86;60.78;100551.69;5104333;27;65749;-43
2023/06/08 08:37:17;;;;;;;3.13;2.85;;;;;;;32.77;60.62;100537.66;5107023;27;68965;-44
2023/06/08 08:39:48;;;;;;;3.88;2.60;;;;;;;32.79;60.82;100535.53;5111701;27;66147;-43
2023/06/08 08:42:25;;;;;;;2.90;2.70;;;;;;;32.37;60.86;100472.44;5113307;27;69955;-43
2023/06/08 08:45:00;;;;;;;3.13;2.92;;;;;;;32.68;60.59;100512.78;5109597;27;65643;-44
2023/06/08 08:47:32;;;;;;;4.05;2.78;;;;;;;32.80;60.71;100531.72;5103604;27;69704;-43
2023/06/08 08:50:09;;;;;;;3.42;3.22;;;;;;;31.46;60.52;100315.63;5115654;27;66535;-43
2023/06/08 08:52:41;;;;;;;3.20;2.90;;;;;;;32.84;60.98;100532.88;5119427;27;69856;-43
2023/06/08 08:55:12;;;;;;;3.45;3.20;;;;;;;32.89;60.84;100534.88;5105832;27;65829;-44
2023/06/08 08:58:05;;;;;;;3.40;3.20;;;;;;;32.87;60.88;100537.00;5108075;27;69728;-42
2023/06/08 09:00:37;;;;;;;4.13;2.97;;;;;;;32.66;60.92;100497.78;5111960;27;66741;-44
2023/06/08 09:03:09;;;;;;;3.05;2.75;;;;;;;32.83;60.86;100528.53;5115229;27;70328;-44
2023/06/08 09:05:40;;;;;;;;;;;;;;;32.59;61.41;100537.81;5104741;27;65706;-43
2023/06/08 09:08:12;;;;;;;5.40;2.65;;;;;;;32.86;61.00;100525.31;5110526;27;69213;-43
2023/06/08 09:10:59;;;;;;;3.08;2.85;;;;;;;32.88;60.86;100534.06;5111955;27;66217;-44
2023/06/08 09:13:31;;;;;;;3.25;3.05;;;;;;;32.78;61.03;100512.13;5107851;27;70460;-47
2023/06/08 09:16:11;;;;;;;3.10;2.90;;;;;;;32.87;60.61;100534.28;5106878;27;65760;-44
2023/06/08 09:18:46;;;;;;;3.35;3.05;;;;;;;32.24;60.89;100430.13;5114382;27;69931;-42
2023/06/08 09:21:26;;;;;;;3.05;2.85;;;;;;;32.85;60.56;100540.00;5104543;27;66125;-43
2023/06/08 09:24:17;;;;;;;3.08;2.70;;;;;;;32.85;60.94;100534.56;5103959;27;70185;-43
2023/06/08 09:26:58;;;;;;;2.95;2.75;;;;;;;32.71;60.94;100522.34;5115381;27;65623;-44
2023/06/08 09:29:38;;;;;;;3.03;2.83;;;;;;;32.86;61.07;100536.19;5107261;27;70777;-43
2023/06/08 09:32:17;;;;;;;5.55;2.90;;;;;;;32.87;60.95;100547.88;5124016;27;66270;-44
2023/06/08 09:35:03;;;;;;;3.53;3.22;;;;;;;32.78;61.18;100539.28;5123495;27;69100;-43
2023/06/08 09:37:39;;;;;;;3.30;3.10;;;;;;;32.84;60.90;100542.94;5115573;27;66173;-44
2023/06/08 09:40:21;;;;;;;3.83;3.53;;;;;;;31.98;60.70;100416.03;5105739;27;69224;-44
2023/06/08 09:42:55;;;;;;;3.50;3.20;;;;;;;32.85;61.07;100553.56;5116324;27;66022;-44
2023/06/08 09:45:27;;;;;;;3.33;3.13;;;;;;;32.83;61.28;100552.97;5110721;27;69029;-43
2023/06/08 09:48:13;;;;;;;;;;;;;;;32.52;62.03;100556.16;5115709;27;66214;-43
2023/06/08 09:50:45;;;;;;;3.58;3.28;;;;;;;32.79;61.38;100562.69;5111323;27;69773;-43
2023/06/08 09:53:16;;;;;;;;;;;;;;;32.51;62.14;100562.63;5107852;27;66259;-44
2023/06/08 09:55:48;;;;;;;3.22;3.03;;;;;;;32.80;61.77;100564.34;5110959;27;68848;-43
2023/06/08 09:58:25;;;;;;;3.35;3.15;;;;;;;32.83;61.55;100576.59;5106822;27;66024;-43
2023/06/08 10:01:06;;;;;;;3.45;3.25;;;;;;;32.08;61.01;100447.16;5105232;27;70014;-48
2023/06/08 10:03:47;;;;;;;3.67;3.47;;;;;;;32.15;61.29;100461.41;5113116;27;65645;-43
2023/06/08 10:06:20;;;;;;;3.25;3.05;;;;;;;32.70;61.31;100554.06;5111901;27;70356;-44
2023/06/08 10:08:54;;;;;;;3.70;3.50;;;;;;;32.11;61.30;100452.09;5100606;27;66171;-44
2023/06/08 10:11:25;;;;;;;3.50;3.25;;;;;;;32.81;61.23;100563.25;5106267;27;70379;-43
2023/06/08 10:13:58;;;;;;;4.18;3.22;;;;;;;32.55;61.29;100529.34;5105096;27;64990;-43
2023/06/08 10:16:29;;;;;;;3.95;3.65;;;;;;;32.81;61.18;100568.69;5107703;27;70440;-43
2023/06/08 10:19:02;;;;;;;3.90;3.45;;;;;;;32.30;61.56;100478.03;5112037;27;66597;-44
2023/06/08 10:21:35;;;;;;;3.72;3.47;;;;;;;32.79;61.40;100559.97;5101998;27;69549;-43
2023/06/08 10:24:08;;;;;;;3.78;3.47;;;;;;;32.71;61.33;100544.88;5104670;27;66126;-43
2023/06/08 10:26:40;;;;;;;4.78;3.63;;;;;;;32.77;62.17;100564.81;5103647;27;69574;-43
2023/06/08 10:29:12;;;;;;;7.13;4.40;;;;;;;32.74;63.20;100554.44;5100836;27;66418;-43
2023/06/08 10:31:49;;;;;;;8.85;3.83;;;;;;;32.77;63.10;100562.09;5104602;27;70753;-43
2023/06/08 10:34:20;;;;;;;4.63;3.45;;;;;;;32.87;62.82;100564.19;5105199;27;66426;-42
2023/06/08 10:36:52;;;;;;;4.03;3.72;;;;;;;32.79;63.51;100561.84;5101042;27;70584;-44
2023/06/08 10:39:23;;;;;;;8.13;4.15;;;;;;;32.77;63.55;100559.38;5108637;27;65936;-45
2023/06/08 10:41:58;;;;;;;4.30;3.85;;;;;;;32.62;63.91;100529.19;5103075;27;70536;-44
2023/06/08 10:44:31;;;;;;;4.47;3.97;;;;;;;32.18;63.36;100469.06;5103174;27;66778;-45
2023/06/08 10:47:07;;;;;;;4.43;3.92;;;;;;;32.82;63.61;100573.06;5105938;27;70334;-44
2023/06/08 10:49:44;;;;;;;4.13;3.85;;;;;;;32.00;63.33;100440.19;5103308;27;66065;-44
2023/06/08 10:52:22;;;;;;;10.68;3.85;;;;;;;31.93;63.29;100429.50;5105971;27;70365;-43
2023/06/08 10:54:58;;;;;;;3.70;3.40;;;;;;;32.77;63.36;100581.13;5101252;27;66388;-44
2023/06/08 10:57:53;;;;;;;5.97;3.80;;;;;;;31.91;63.96;100447.88;5103485;27;69864;-44
2023/06/08 11:00:31;;;;;;;4.25;3.95;;;;;;;32.79;63.60;100570.84;5111495;27;66991;-44
2023/06/08 11:03:06;;;;;;;4.25;3.85;;;;;;;32.78;63.96;100599.06;5106652;27;69941;-44
2023/06/08 11:05:40;;;;;;;4.70;4.25;;;;;;;32.51;63.41;100543.63;5112896;27;65733;-44
2023/06/08 11:08:12;;;;;;;6.28;4.68;;;;;;;32.74;63.67;100584.31;5108810;27;69128;-44
2023/06/08 11:10:44;;;;;;;4.45;3.70;;;;;;;32.73;63.67;100579.94;5113085;27;66251;-44
2023/06/08 11:13:18;;;;;;;4.30;3.67;;;;;;;32.55;63.47;100552.94;5102816;27;70827;-43
2023/06/08 11:15:50;;;;;;;4.00;3.65;;;;;;;32.59;63.72;100565.78;5108354;27;66494;-43
2023/06/08 11:18:21;;;;;;;4.10;3.80;;;;;;;32.72;63.80;100591.88;5108245;27;67964;-44
2023/06/08 11:20:58;;;;;;;4.18;3.88;;;;;;;32.73;63.84;100588.06;5108308;27;66572;-44
2023/06/08 11:23:37;;;;;;;6.53;4.53;;;;;;;32.70;63.80;100597.53;5112405;27;69775;-44
2023/06/08 11:26:14;;;;;;;7.65;4.55;;;;;;;31.86;64.36;100472.16;5105506;27;66720;-44
2023/06/08 11:28:46;;;;;;;4.38;4.07;;;;;;;32.69;64.29;100600.50;5105039;27;70090;-44
2023/06/08 11:31:17;;;;;;;4.95;4.55;;;;;;;32.65;63.96;100589.28;5105958;27;65710;-44
2023/06/08 11:33:49;;;;;;;4.53;4.22;;;;;;;32.53;64.05;100576.78;5110193;27;69857;-43
2023/06/08 11:36:21;;;;;;;4.82;4.43;;;;;;;32.65;64.05;100599.31;5116473;27;66006;-43
2023/06/08 11:38:53;;;;;;;5.10;4.60;;;;;;;32.64;63.97;100592.25;5108302;27;70525;-43
2023/06/08 11:41:26;;;;;;;4.53;4.22;;;;;;;32.03;64.05;100502.94;5110388;27;66440;-43
2023/06/08 11:43:58;;;;;;;4.20;3.90;;;;;;;32.57;63.93;100605.09;5105352;27;69647;-45
2023/06/08 11:46:32;;;;;;;5.35;4.85;;;;;;;32.62;64.43;100602.50;5106540;27;66574;-43
2023/06/08 11:49:08;;;;;;;4.82;4.43;;;;;;;32.54;64.34;100611.00;5109239;27;70266;-44
2023/06/08 11:51:46;;;;;;;4.60;4.20;;;;;;;31.90;64.40;100500.47;5107013;27;66883;-43
2023/06/08 11:54:18;;;;;;;5.07;4.70;;;;;;;32.57;64.33;100610.53;5108937;27;69634;-44
2023/06/08 11:56:49;;;;;;;5.40;4.65;;;;;;;32.58;64.49;100623.88;5111276;27;65492;-44